Avenel, New Jersey
Current Conditions -  °F | °C
As of 11:35 PM on Tuesday 25 Nov 2014 (Local Time) from KLDJ Reporting Station
Clear Clear  
Wind Chill: 52°   Ceiling: Unl
Heat Index: 52°   Visibility: 10mi
Dew Point: 33°   Wind: 0mph
Humidity: 49%   Direction: NA
Pressure: 30.2"   Gusts: NA
Location:  40.58°N, 74.28°W
Report Text: KLDJ 260435Z AUTO 00000KT 10SM CLR 11/01 A3020 RMK AO2 T01100006
Loading
Personal Weather Stations






























Interactive Weather Map New forecast layout! Learn more

10-Day Weather Forecast

Advertisements
Track Severe Weather on mobile